Time;durP1;ratioP1;P1;durP2;ratioP2;P2;SDS_P1;SDS_P2;PMS_P1;PMS_P2;Temp;Humidity;BMP_temperature;BMP_pressure;BME280_temperature;BME280_humidity;BME280_pressure;Samples;Min_cycle;Max_cycle;Signal;HPM_P1;HPM_P2
2022/10/18 00:00:13;;;;;;;6.90;2.70;;;14.40;99.90;;;;;;5048921;28;20154;-75
2022/10/18 00:02:38;;;;;;;7.65;3.00;;;14.40;99.90;;;;;;5047104;28;20025;-75
2022/10/18 00:05:05;;;;;;;7.40;3.25;;;14.40;99.90;;;;;;5052356;28;20048;-74
2022/10/18 00:07:36;;;;;;;8.55;3.88;;;14.30;99.90;;;;;;5050869;28;20021;-76
2022/10/18 00:10:05;;;;;;;8.07;3.47;;;14.30;99.90;;;;;;5048597;28;20056;-75
2022/10/18 00:12:35;;;;;;;8.27;3.53;;;14.30;99.90;;;;;;5050307;28;20029;-75
2022/10/18 00:15:01;;;;;;;9.63;3.47;;;14.30;99.90;;;;;;5047514;28;20489;-74
2022/10/18 00:17:27;;;;;;;9.73;3.83;;;14.30;99.90;;;;;;5048485;28;20477;-75
2022/10/18 00:19:52;;;;;;;10.38;3.53;;;14.30;99.90;;;;;;5046300;28;20028;-76
2022/10/18 00:22:18;;;;;;;10.35;4.05;;;14.20;99.90;;;;;;5048294;28;20036;-75
2022/10/18 00:24:44;;;;;;;13.75;3.72;;;14.20;99.90;;;;;;5048034;28;20025;-77
2022/10/18 00:27:16;;;;;;;12.13;3.85;;;14.20;99.90;;;;;;5049184;28;20045;-76
2022/10/18 00:29:42;;;;;;;10.50;3.55;;;14.10;99.90;;;;;;5043584;28;20107;-76
2022/10/18 00:32:11;;;;;;;10.48;3.47;;;14.10;99.90;;;;;;5047178;28;20127;-73
2022/10/18 00:34:39;;;;;;;8.55;3.42;;;14.10;99.90;;;;;;5053427;28;20044;-73
2022/10/18 00:37:08;;;;;;;10.35;3.90;;;14.20;99.90;;;;;;5050803;28;20033;-74
2022/10/18 00:39:33;;;;;;;7.15;3.70;;;14.10;99.90;;;;;;5048719;28;20025;-73
2022/10/18 00:41:59;;;;;;;19.67;4.30;;;14.10;99.90;;;;;;5046336;28;20315;-73
2022/10/18 00:44:25;;;;;;;10.48;4.43;;;14.00;99.90;;;;;;5047695;28;20036;-74
2022/10/18 00:46:54;;;;;;;11.27;3.78;;;14.00;99.90;;;;;;5050661;28;20032;-74
2022/10/18 00:49:25;;;;;;;11.23;3.42;;;13.90;99.90;;;;;;5045702;28;20024;-73
2022/10/18 00:52:02;;;;;;;8.88;3.72;;;13.90;99.90;;;;;;5047374;28;20025;-74
2022/10/18 00:54:32;;;;;;;5.15;3.10;;;13.90;99.90;;;;;;5048278;28;20037;-73
2022/10/18 00:56:58;;;;;;;10.93;3.72;;;13.90;99.90;;;;;;5049043;28;20037;-74
2022/10/18 00:59:28;;;;;;;8.82;4.10;;;13.90;99.90;;;;;;5050249;28;20040;-73
2022/10/18 01:01:56;;;;;;;9.57;3.83;;;13.90;99.90;;;;;;5045182;28;20119;-72
2022/10/18 01:04:22;;;;;;;17.60;3.50;;;13.80;99.90;;;;;;5050354;28;20052;-73
2022/10/18 01:07:16;;;;;;;11.50;4.07;;;13.80;99.90;;;;;;5051582;28;20052;-73
2022/10/18 01:09:46;;;;;;;6.53;4.25;;;13.80;99.90;;;;;;5045770;28;20381;-73
2022/10/18 01:12:49;;;;;;;11.18;3.33;;;13.80;99.90;;;;;;5050081;28;20098;-73
2022/10/18 01:15:22;;;;;;;5.93;3.03;;;13.80;99.90;;;;;;5046170;28;20044;-75
2022/10/18 01:18:19;;;;;;;8.45;3.92;;;13.80;99.90;;;;;;5048608;28;20651;-76
2022/10/18 01:21:32;;;;;;;8.82;4.03;;;13.80;99.90;;;;;;5048286;28;20094;-77
2022/10/18 01:24:22;;;;;;;9.20;3.97;;;13.80;99.90;;;;;;5022022;28;20042;-77
2022/10/18 01:27:12;;;;;;;10.43;3.25;;;13.80;99.90;;;;;;5045738;28;20100;-76
2022/10/18 01:30:15;;;;;;;6.97;3.08;;;13.90;99.90;;;;;;5046931;28;20090;-76
2022/10/18 01:32:50;;;;;;;10.00;3.10;;;13.90;99.90;;;;;;5037989;28;20027;-74
2022/10/18 01:35:33;;;;;;;6.00;2.40;;;13.90;99.90;;;;;;5065895;28;20056;-76
2022/10/18 01:38:06;;;;;;;5.82;3.05;;;13.90;99.90;;;;;;5045831;28;20500;-76
2022/10/18 01:40:37;;;;;;;4.88;2.60;;;13.90;99.90;;;;;;5054545;28;20052;-76
2022/10/18 01:43:04;;;;;;;6.00;2.88;;;14.00;99.90;;;;;;5048341;28;20087;-75
2022/10/18 01:45:32;;;;;;;5.10;2.55;;;14.00;99.90;;;;;;5050947;28;20056;-75
2022/10/18 01:48:00;;;;;;;6.60;2.85;;;14.00;99.90;;;;;;5047085;28;20071;-76
2022/10/18 01:50:32;;;;;;;10.23;3.22;;;14.10;99.90;;;;;;5043061;28;20040;-76
2022/10/18 01:53:02;;;;;;;8.68;2.80;;;14.10;99.90;;;;;;5049169;28;20040;-75
2022/10/18 01:55:39;;;;;;;4.97;3.05;;;14.10;99.90;;;;;;5048404;28;20025;-75
2022/10/18 01:58:25;;;;;;;10.00;3.65;;;14.10;99.90;;;;;;5048945;28;20111;-75
2022/10/18 02:01:16;;;;;;;4.10;2.70;;;14.10;99.90;;;;;;5051814;28;20151;-75
2022/10/18 02:03:47;;;;;;;7.10;2.72;;;14.20;99.90;;;;;;5053587;28;20017;-75
2022/10/18 02:06:25;;;;;;;7.00;2.88;;;14.10;99.90;;;;;;5048558;28;20032;-75
2022/10/18 02:09:02;;;;;;;6.13;2.75;;;14.20;99.90;;;;;;5047070;28;20485;-75
2022/10/18 02:11:30;;;;;;;7.97;3.17;;;14.20;99.90;;;;;;5048428;28;20045;-75
2022/10/18 02:14:09;;;;;;;7.65;2.65;;;14.20;99.90;;;;;;5049008;28;20104;-75
2022/10/18 02:16:45;;;;;;;8.63;2.80;;;14.20;99.90;;;;;;5050551;28;20107;-75
2022/10/18 02:19:17;;;;;;;6.88;3.05;;;14.20;99.90;;;;;;5050467;28;20033;-74
2022/10/18 02:21:46;;;;;;;4.13;2.75;;;14.20;99.90;;;;;;5044825;28;20025;-75
2022/10/18 02:24:14;;;;;;;5.40;2.45;;;14.20;99.90;;;;;;5044433;28;20108;-75
2022/10/18 02:26:42;;;;;;;8.52;2.50;;;14.30;99.90;;;;;;5047956;28;20040;-74
2022/10/18 02:29:08;;;;;;;4.82;2.13;;;14.30;99.90;;;;;;5042582;28;20032;-74
2022/10/18 02:31:45;;;;;;;2.85;2.10;;;14.30;99.90;;;;;;5046464;28;20079;-74
2022/10/18 02:34:21;;;;;;;10.07;2.78;;;14.30;99.90;;;;;;5046147;28;20033;-75
2022/10/18 02:37:00;;;;;;;7.57;3.00;;;14.30;99.90;;;;;;5049853;28;20028;-75
2022/10/18 02:39:33;;;;;;;6.40;3.00;;;14.40;99.90;;;;;;5049429;28;20033;-74
2022/10/18 02:41:59;;;;;;;9.97;3.53;;;14.40;99.90;;;;;;5046318;28;20448;-74
2022/10/18 02:44:28;;;;;;;17.00;4.00;;;14.40;99.90;;;;;;5047322;28;20127;-74
2022/10/18 02:46:56;;;;;;;8.68;3.83;;;14.30;99.90;;;;;;5052392;28;20021;-74
2022/10/18 02:49:22;;;;;;;14.82;4.10;;;14.30;99.90;;;;;;5052030;28;20510;-75
2022/10/18 02:51:54;;;;;;;10.15;3.97;;;14.30;99.90;;;;;;5052142;28;20033;-75
2022/10/18 02:54:19;;;;;;;9.38;3.80;;;14.30;99.90;;;;;;5049624;28;20495;-75
2022/10/18 02:56:45;;;;;;;7.93;3.55;;;14.20;99.90;;;;;;5050147;28;20029;-75
2022/10/18 02:59:11;;;;;;;23.00;4.50;;;14.20;99.90;;;;;;5070112;28;20053;-75
2022/10/18 03:01:37;;;;;;;9.70;3.10;;;14.20;99.90;;;;;;5049240;28;20031;-75
2022/10/18 03:04:03;;;;;;;5.72;2.95;;;14.20;99.90;;;;;;5045983;28;20494;-75
2022/10/18 03:06:33;;;;;;;8.35;2.85;;;14.20;99.90;;;;;;5053532;28;20489;-74
2022/10/18 03:09:01;;;;;;;10.90;2.90;;;14.20;99.90;;;;;;5051546;28;20432;-74
2022/10/18 03:11:27;;;;;;;15.27;3.33;;;14.20;99.90;;;;;;5053637;28;20035;-75
2022/10/18 03:13:52;;;;;;;8.93;3.00;;;14.20;99.90;;;;;;5047630;28;20104;-74
2022/10/18 03:16:24;;;;;;;5.78;2.60;;;14.20;99.90;;;;;;5055037;28;20024;-75
2022/10/18 03:18:55;;;;;;;6.50;2.42;;;14.20;99.90;;;;;;5049353;28;20033;-75
2022/10/18 03:21:30;;;;;;;16.50;3.13;;;14.20;99.90;;;;;;5051105;28;20029;-73
2022/10/18 03:23:57;;;;;;;5.50;2.83;;;14.20;99.90;;;;;;5045599;28;20069;-73
2022/10/18 03:26:29;;;;;;;8.02;2.75;;;14.20;99.90;;;;;;5052648;28;20044;-74
2022/10/18 03:28:54;;;;;;;8.23;2.78;;;14.20;99.90;;;;;;5047083;28;20041;-74
2022/10/18 03:31:20;;;;;;;10.88;4.88;;;14.20;99.90;;;;;;5046986;28;20087;-75
2022/10/18 03:33:54;;;;;;;8.60;3.53;;;14.20;99.90;;;;;;5048701;28;20044;-72
2022/10/18 03:36:20;;;;;;;15.73;3.72;;;14.20;99.90;;;;;;5052032;28;20425;-73
2022/10/18 03:38:49;;;;;;;6.35;2.90;;;14.20;99.90;;;;;;5049805;28;20025;-74
2022/10/18 03:41:18;;;;;;;7.40;2.60;;;14.20;99.90;;;;;;5050808;28;20017;-74
2022/10/18 03:43:47;;;;;;;8.82;3.28;;;14.20;99.90;;;;;;5044147;28;20070;-74
2022/10/18 03:46:12;;;;;;;12.65;3.03;;;14.30;99.90;;;;;;5048893;28;20056;-75
2022/10/18 03:48:50;;;;;;;6.65;2.58;;;14.30;99.90;;;;;;5050026;28;20481;-74
2022/10/18 03:51:16;;;;;;;10.40;3.05;;;14.30;99.90;;;;;;5049040;28;20509;-74
2022/10/18 03:53:44;;;;;;;9.40;3.42;;;14.30;99.90;;;;;;5042559;28;20104;-75
2022/10/18 03:56:10;;;;;;;4.13;2.35;;;14.40;99.90;;;;;;5046322;28;20116;-75
2022/10/18 03:58:36;;;;;;;7.82;2.72;;;14.40;99.90;;;;;;5050192;28;20556;-75
2022/10/18 04:01:01;;;;;;;5.50;2.75;;;14.40;99.90;;;;;;5047992;28;20025;-75
2022/10/18 04:03:30;;;;;;;7.82;3.17;;;14.40;99.90;;;;;;5047522;28;20032;-75
2022/10/18 04:05:56;;;;;;;16.00;3.50;;;14.40;99.90;;;;;;5051583;28;20119;-76
2022/10/18 04:08:21;;;;;;;6.88;2.80;;;14.40;99.90;;;;;;5051433;28;20112;-75
2022/10/18 04:10:47;;;;;;;9.70;3.40;;;14.50;99.90;;;;;;5053333;28;20033;-75
2022/10/18 04:13:13;;;;;;;6.68;2.80;;;14.40;99.90;;;;;;5046248;28;20024;-75
2022/10/18 04:15:38;;;;;;;5.80;3.05;;;14.40;99.90;;;;;;5048963;28;20385;-75
2022/10/18 04:18:04;;;;;;;6.05;2.70;;;14.50;99.90;;;;;;5050375;28;20098;-75
2022/10/18 04:20:29;;;;;;;8.65;3.50;;;14.40;99.90;;;;;;5050725;28;20045;-76
2022/10/18 04:22:58;;;;;;;9.15;3.38;;;14.50;99.90;;;;;;5047183;28;20485;-76
2022/10/18 04:25:28;;;;;;;9.60;3.00;;;14.40;99.90;;;;;;5049834;28;20043;-75
2022/10/18 04:27:53;;;;;;;9.27;2.90;;;14.50;99.90;;;;;;5042914;28;20503;-76
2022/10/18 04:30:19;;;;;;;10.48;3.35;;;14.40;99.90;;;;;;5059434;28;20032;-75
2022/10/18 04:32:48;;;;;;;7.78;2.70;;;14.40;99.90;;;;;;5048526;28;20029;-76
2022/10/18 04:35:13;;;;;;;7.28;3.13;;;14.40;99.90;;;;;;5051668;28;20033;-76
2022/10/18 04:37:42;;;;;;;7.70;3.25;;;14.40;99.90;;;;;;5050540;28;20021;-76
2022/10/18 04:40:08;;;;;;;8.93;2.25;;;14.40;99.90;;;;;;5046383;28;20091;-76
2022/10/18 04:42:34;;;;;;;6.50;2.80;;;14.30;99.90;;;;;;5045432;28;20037;-76
2022/10/18 04:45:11;;;;;;;9.13;2.50;;;14.40;99.90;;;;;;5046686;28;20078;-75
2022/10/18 04:47:37;;;;;;;8.95;3.10;;;14.30;99.90;;;;;;5046217;28;20067;-76
2022/10/18 04:50:03;;;;;;;9.23;3.00;;;14.40;99.90;;;;;;5048949;28;20045;-76
2022/10/18 04:52:29;;;;;;;6.63;2.60;;;14.40;99.90;;;;;;5045739;28;20048;-75
2022/10/18 04:54:55;;;;;;;7.20;3.28;;;14.40;99.90;;;;;;5002921;28;20041;-75
2022/10/18 04:57:21;;;;;;;7.88;2.92;;;14.40;99.90;;;;;;5007214;28;20050;-75
2022/10/18 04:59:46;;;;;;;12.45;3.53;;;14.40;99.90;;;;;;5007012;28;20030;-74
2022/10/18 05:02:12;;;;;;;8.30;3.08;;;14.40;99.90;;;;;;5002698;28;20498;-74
2022/10/18 05:04:37;;;;;;;13.15;3.15;;;14.40;99.90;;;;;;5004758;28;20065;-75
2022/10/18 05:07:05;;;;;;;8.27;3.15;;;14.40;99.90;;;;;;5008441;28;20048;-76
2022/10/18 05:09:34;;;;;;;8.40;3.15;;;14.40;99.90;;;;;;5011669;28;20474;-75
2022/10/18 05:11:59;;;;;;;6.85;3.08;;;14.40;99.90;;;;;;5007331;28;20029;-75
2022/10/18 05:14:25;;;;;;;12.57;3.53;;;14.40;99.90;;;;;;5024031;28;20410;-75
2022/10/18 05:16:50;;;;;;;7.88;3.20;;;14.40;99.90;;;;;;5009162;28;20041;-76
2022/10/18 05:19:16;;;;;;;5.28;3.30;;;14.40;99.90;;;;;;5013390;28;20057;-75
2022/10/18 05:21:42;;;;;;;19.55;3.97;;;14.30;99.90;;;;;;5006603;28;20030;-75
2022/10/18 05:24:10;;;;;;;7.55;3.53;;;14.30;99.90;;;;;;5008800;28;20029;-75
2022/10/18 05:26:39;;;;;;;7.90;3.67;;;14.30;99.90;;;;;;5022245;28;20037;-75
2022/10/18 05:29:04;;;;;;;10.95;4.13;;;14.30;99.90;;;;;;5009657;28;20030;-75
2022/10/18 05:31:30;;;;;;;12.18;4.15;;;14.30;99.90;;;;;;5009917;28;20022;-75
2022/10/18 05:33:56;;;;;;;12.10;4.95;;;14.30;99.90;;;;;;5010437;28;20071;-74
2022/10/18 05:36:21;;;;;;;8.02;4.00;;;14.30;99.90;;;;;;5017130;28;20071;-75
2022/10/18 05:38:47;;;;;;;17.48;4.25;;;14.20;99.90;;;;;;5029053;28;20176;-74
2022/10/18 05:41:13;;;;;;;9.15;3.58;;;14.20;99.90;;;;;;5010324;28;20068;-75
2022/10/18 05:43:40;;;;;;;13.88;4.70;;;14.20;99.90;;;;;;5008508;28;20128;-69
2022/10/18 05:46:07;;;;;;;8.10;3.70;;;14.10;99.90;;;;;;5003255;28;20160;-69
2022/10/18 05:48:33;;;;;;;12.05;4.43;;;14.10;99.90;;;;;;5004740;28;20018;-68
2022/10/18 05:51:07;;;;;;;10.10;3.80;;;14.10;99.90;;;;;;5004188;28;20022;-68
2022/10/18 05:53:42;;;;;;;17.10;4.03;;;14.10;99.90;;;;;;5008474;28;20042;-68
2022/10/18 05:56:11;;;;;;;11.27;4.13;;;14.10;99.90;;;;;;5025850;28;20517;-70
2022/10/18 05:58:38;;;;;;;9.38;4.40;;;14.10;99.90;;;;;;5008434;28;20025;-69
2022/10/18 06:01:10;;;;;;;13.77;4.78;;;14.10;99.90;;;;;;5012786;28;20037;-69
2022/10/18 06:03:45;;;;;;;10.10;4.85;;;14.20;99.90;;;;;;5009665;28;20601;-68
2022/10/18 06:06:12;;;;;;;9.55;4.22;;;14.10;99.90;;;;;;5009894;28;20101;-69
2022/10/18 06:08:38;;;;;;;14.38;5.63;;;14.10;99.90;;;;;;5010994;28;20056;-70
2022/10/18 06:11:16;;;;;;;11.95;5.00;;;14.20;99.90;;;;;;5011212;28;20083;-68
2022/10/18 06:13:46;;;;;;;13.85;4.43;;;14.20;99.90;;;;;;5009475;28;20022;-68
2022/10/18 06:16:13;;;;;;;12.23;5.07;;;14.20;99.90;;;;;;5008552;28;20030;-68
2022/10/18 06:18:39;;;;;;;11.82;5.18;;;14.20;99.90;;;;;;5011279;28;20029;-68
2022/10/18 06:21:10;;;;;;;20.70;5.32;;;14.20;99.90;;;;;;5015888;28;20038;-75
2022/10/18 06:23:39;;;;;;;11.30;5.43;;;14.20;99.90;;;;;;5010814;28;20049;-74
2022/10/18 06:26:07;;;;;;;14.70;5.13;;;14.20;99.90;;;;;;5015495;28;20033;-74
2022/10/18 06:28:34;;;;;;;16.23;5.32;;;14.20;99.90;;;;;;5010374;28;20030;-74
2022/10/18 06:31:00;;;;;;;16.17;6.05;;;14.20;99.90;;;;;;5011799;28;20026;-74
2022/10/18 06:33:30;;;;;;;10.38;5.43;;;14.20;99.90;;;;;;5007782;28;20437;-74
2022/10/18 06:36:12;;;;;;;20.42;6.00;;;14.30;99.90;;;;;;5015041;28;20029;-74
2022/10/18 06:38:41;;;;;;;13.25;4.90;;;14.30;99.90;;;;;;5013972;28;20119;-74
2022/10/18 06:41:07;;;;;;;16.25;5.75;;;14.40;99.90;;;;;;5007245;28;20041;-73
2022/10/18 06:43:33;;;;;;;13.27;5.55;;;14.50;99.90;;;;;;5011617;28;20030;-74
2022/10/18 06:46:03;;;;;;;13.80;5.93;;;14.60;99.90;;;;;;5014438;28;20079;-73
2022/10/18 06:48:30;;;;;;;22.02;5.68;;;14.60;99.90;;;;;;5011448;28;20022;-72
2022/10/18 06:51:04;;;;;;;13.57;4.32;;;14.80;99.90;;;;;;5045102;28;20030;-74
2022/10/18 06:53:32;;;;;;;10.43;4.78;;;14.80;99.90;;;;;;5012192;28;20060;-74
2022/10/18 06:56:12;;;;;;;25.48;5.18;;;15.00;99.90;;;;;;5023444;28;20026;-74
2022/10/18 06:58:43;;;;;;;16.75;4.45;;;15.00;99.90;;;;;;5015007;28;20022;-75
2022/10/18 07:01:17;;;;;;;9.48;4.15;;;15.10;99.90;;;;;;5010979;28;20061;-75
2022/10/18 07:03:43;;;;;;;11.93;4.32;;;15.30;99.90;;;;;;5015145;28;20358;-74
2022/10/18 07:06:11;;;;;;;10.95;3.13;;;15.40;99.90;;;;;;5009933;28;20109;-75
2022/10/18 07:08:37;;;;;;;10.35;3.63;;;15.50;99.90;;;;;;5015511;28;20033;-73
2022/10/18 07:11:08;;;;;;;9.25;3.92;;;15.60;99.90;;;;;;5010398;28;20360;-72
2022/10/18 07:13:36;;;;;;;8.40;3.22;;;15.70;99.90;;;;;;5014077;28;20036;-74
2022/10/18 07:16:20;;;;;;;8.65;3.60;;;15.80;99.90;;;;;;5024108;28;20065;-73
2022/10/18 07:18:48;;;;;;;;;;;15.90;99.90;;;;;;5003700;28;20052;-74
2022/10/18 07:21:16;;;;;;;8.43;4.25;;;15.90;99.90;;;;;;4993407;28;19917;-74
2022/10/18 07:23:49;;;;;;;14.43;5.38;;;16.00;99.90;;;;;;5007984;28;20471;-74
2022/10/18 07:26:21;;;;;;;19.63;5.78;;;16.00;99.90;;;;;;5003003;28;20056;-75
2022/10/18 07:29:04;;;;;;;18.13;5.57;;;16.10;99.90;;;;;;5005398;28;21610;-74
2022/10/18 07:31:42;;;;;;;13.07;5.30;;;16.20;99.90;;;;;;5007082;28;20022;-74
2022/10/18 07:34:10;;;;;;;18.85;5.68;;;16.20;99.90;;;;;;5025926;28;20050;-75
2022/10/18 07:36:36;;;;;;;14.65;5.22;;;16.20;99.90;;;;;;5030163;28;20022;-74
2022/10/18 07:39:02;;;;;;;14.98;5.45;;;16.20;99.90;;;;;;5023537;28;20042;-75
2022/10/18 07:41:30;;;;;;;13.93;5.28;;;16.20;99.90;;;;;;5001071;28;20029;-75
2022/10/18 07:43:56;;;;;;;14.10;5.10;;;16.20;99.90;;;;;;5009674;28;20153;-74
2022/10/18 07:46:27;;;;;;;12.93;5.20;;;16.30;99.90;;;;;;5003983;28;20057;-75
2022/10/18 07:48:54;;;;;;;15.00;5.13;;;16.30;99.90;;;;;;5013693;28;20025;-75
2022/10/18 07:51:31;;;;;;;11.38;4.68;;;16.40;99.90;;;;;;5007832;28;20028;-75
2022/10/18 07:54:00;;;;;;;17.77;5.30;;;16.30;99.90;;;;;;4964825;28;20033;-75
2022/10/18 07:56:28;;;;;;;12.18;5.05;;;16.40;99.90;;;;;;5013828;28;20118;-75
2022/10/18 07:59:00;;;;;;;11.63;5.95;;;16.40;99.90;;;;;;5009758;28;20033;-75
2022/10/18 08:01:26;;;;;;;14.00;5.57;;;16.40;99.90;;;;;;5011655;28;20386;-74
2022/10/18 08:03:52;;;;;;;13.55;4.22;;;16.50;99.90;;;;;;5005842;28;20033;-75
2022/10/18 08:06:20;;;;;;;9.98;4.18;;;16.50;99.90;;;;;;5004765;28;20544;-75
2022/10/18 08:08:46;;;;;;;13.68;5.05;;;16.50;99.90;;;;;;5007361;28;20402;-76
2022/10/18 08:11:15;;;;;;;8.50;4.05;;;16.50;99.90;;;;;;5004476;28;20018;-74
2022/10/18 08:13:42;;;;;;;18.50;4.18;;;16.60;99.90;;;;;;5006168;28;20506;-74
2022/10/18 08:16:13;;;;;;;11.23;4.00;;;16.60;99.90;;;;;;5010862;28;20025;-74
2022/10/18 08:18:39;;;;;;;14.20;3.90;;;16.60;99.90;;;;;;5012156;28;20061;-74
2022/10/18 08:21:13;;;;;;;11.68;4.03;;;16.70;99.90;;;;;;5026808;28;20590;-74
2022/10/18 08:23:39;;;;;;;10.57;4.20;;;16.80;99.90;;;;;;5007967;28;20033;-74
2022/10/18 08:26:11;;;;;;;11.80;4.05;;;16.90;99.90;;;;;;5039095;28;20129;-74
2022/10/18 08:28:37;;;;;;;14.15;3.90;;;16.90;99.90;;;;;;5008536;28;20031;-73
2022/10/18 08:31:11;;;;;;;7.57;3.22;;;17.00;99.90;;;;;;5008693;28;20030;-74
2022/10/18 08:33:39;;;;;;;13.85;3.65;;;17.20;99.90;;;;;;5011826;28;20482;-74
2022/10/18 08:36:09;;;;;;;10.60;3.90;;;17.30;99.90;;;;;;5013604;28;20045;-74
2022/10/18 08:38:39;;;;;;;13.93;3.40;;;17.40;99.90;;;;;;5012869;28;20034;-74
2022/10/18 08:41:17;;;;;;;7.90;3.28;;;17.60;99.90;;;;;;5009655;28;20112;-74
2022/10/18 08:44:21;;;;;;;8.52;3.65;;;17.60;99.90;;;;;;5008170;28;20104;-73
2022/10/18 08:46:48;;;;;;;;;;;17.60;99.90;;;;;;5008640;28;20032;-73
2022/10/18 08:49:45;;;;;;;12.10;4.55;;;17.70;99.90;;;;;;5011318;28;20274;-74
2022/10/18 08:52:22;;;;;;;15.27;3.92;;;17.70;99.90;;;;;;5007899;28;20038;-74
2022/10/18 08:55:12;;;;;;;10.82;4.80;;;17.70;99.90;;;;;;5013024;28;20030;-74
2022/10/18 08:57:37;;;;;;;14.05;4.60;;;17.60;99.90;;;;;;5005781;28;20049;-74
2022/10/18 09:00:20;;;;;;;13.38;4.80;;;17.60;99.90;;;;;;5007280;28;20363;-75
2022/10/18 09:03:32;;;;;;;13.02;4.68;;;17.70;99.90;;;;;;5009639;28;20080;-73
2022/10/18 09:06:29;;;;;;;9.55;4.53;;;17.70;99.90;;;;;;4994276;28;20039;-73
2022/10/18 09:09:16;;;;;;;14.65;4.97;;;17.80;99.90;;;;;;5009327;28;20108;-73
2022/10/18 09:11:54;;;;;;;10.25;4.68;;;17.90;99.90;;;;;;5023585;28;20057;-73
2022/10/18 09:14:52;;;;;;;8.65;4.18;;;18.00;99.90;;;;;;5004513;28;20137;-74
2022/10/18 09:17:24;;;;;;;13.13;4.40;;;18.10;99.90;;;;;;5020892;28;20037;-73
2022/10/18 09:20:14;;;;;;;9.05;3.97;;;18.10;99.90;;;;;;5002190;28;20030;-74
2022/10/18 09:22:51;;;;;;;8.13;4.07;;;18.20;99.90;;;;;;5004828;28;20030;-73
2022/10/18 09:25:36;;;;;;;9.90;3.72;;;18.30;99.90;;;;;;5003458;28;20494;-73
2022/10/18 09:28:26;;;;;;;8.98;3.92;;;18.40;99.90;;;;;;5008721;28;20049;-73
2022/10/18 09:31:00;;;;;;;8.98;4.10;;;18.60;99.90;;;;;;4995748;28;20022;-73
2022/10/18 09:33:43;;;;;;;9.25;4.20;;;18.80;99.90;;;;;;4996316;28;20506;-74
2022/10/18 09:36:21;;;;;;;9.77;4.00;;;18.90;99.90;;;;;;5007857;28;20509;-74
2022/10/18 09:38:58;;;;;;;6.97;3.65;;;19.00;99.90;;;;;;5009361;28;20463;-74
2022/10/18 09:41:38;;;;;;;12.30;4.10;;;19.10;99.90;;;;;;5002804;28;20088;-75
2022/10/18 09:44:27;;;;;;;7.85;3.60;;;19.20;99.90;;;;;;4988007;28;20114;-73
2022/10/18 09:46:59;;;;;;;7.57;3.90;;;19.20;99.90;;;;;;4987043;28;20152;-73
2022/10/18 09:49:32;;;;;;;11.15;4.00;;;19.30;99.90;;;;;;5002793;28;20040;-73
2022/10/18 09:52:14;;;;;;;10.13;4.30;;;19.30;99.90;;;;;;5001682;28;20018;-73
2022/10/18 09:54:47;;;;;;;8.02;3.70;;;19.40;99.90;;;;;;4996197;28;20032;-74
2022/10/18 09:57:20;;;;;;;7.68;3.45;;;19.40;99.90;;;;;;4994148;28;20049;-73
2022/10/18 09:59:48;;;;;;;8.73;3.30;;;19.40;99.90;;;;;;4993771;28;20018;-74
2022/10/18 10:02:16;;;;;;;6.35;3.58;;;19.50;99.90;;;;;;4988056;28;20034;-74
2022/10/18 10:04:42;;;;;;;12.73;4.38;;;19.50;99.90;;;;;;5006860;28;20038;-72
2022/10/18 10:07:32;;;;;;;16.20;4.13;;;19.50;99.90;;;;;;4991392;28;20036;-72
2022/10/18 10:10:02;;;;;;;6.90;3.40;;;19.50;99.90;;;;;;4985558;28;20113;-73
2022/10/18 10:12:34;;;;;;;8.88;3.53;;;19.50;99.90;;;;;;4989534;28;20045;-74
2022/10/18 10:15:24;;;;;;;7.20;3.03;;;19.60;99.90;;;;;;4995422;28;20022;-73
2022/10/18 10:17:57;;;;;;;6.82;3.33;;;19.60;99.90;;;;;;5005245;28;20435;-75
2022/10/18 10:20:43;;;;;;;12.77;4.10;;;19.60;99.90;;;;;;5004316;28;20037;-74
2022/10/18 10:23:36;;;;;;;10.55;3.67;;;19.60;99.90;;;;;;5002468;28;20510;-73
2022/10/18 10:26:06;;;;;;;8.43;3.25;;;19.70;99.90;;;;;;4996338;28;20069;-74
2022/10/18 10:28:47;;;;;;;8.13;4.03;;;19.70;99.90;;;;;;4992729;28;20040;-74
2022/10/18 10:31:27;;;;;;;10.80;3.67;;;19.70;99.90;;;;;;5032041;28;20048;-74
2022/10/18 10:34:16;;;;;;;10.40;3.63;;;19.80;99.90;;;;;;5009451;28;20029;-73
2022/10/18 10:36:50;;;;;;;8.32;3.85;;;19.80;99.90;;;;;;5009772;28;20038;-73
2022/10/18 10:39:18;;;;;;;8.18;3.50;;;19.90;99.90;;;;;;5005739;28;20626;-73
2022/10/18 10:41:58;;;;;;;13.07;3.88;;;19.90;99.90;;;;;;5004373;28;20029;-73
2022/10/18 10:44:34;;;;;;;7.95;3.72;;;20.00;99.90;;;;;;5004654;28;20030;-71
2022/10/18 10:47:01;;;;;;;8.57;3.38;;;20.00;99.90;;;;;;4998744;28;20041;-73
2022/10/18 10:49:37;;;;;;;7.32;3.40;;;20.00;99.90;;;;;;5004560;28;20445;-75
2022/10/18 10:52:04;;;;;;;13.40;3.70;;;20.00;99.90;;;;;;4991543;28;20501;-74
2022/10/18 10:54:34;;;;;;;9.85;4.32;;;20.00;99.90;;;;;;4989132;28;20137;-73
2022/10/18 10:57:11;;;;;;;8.45;3.33;;;20.00;99.90;;;;;;4994690;28;20065;-77
2022/10/18 10:59:59;;;;;;;6.57;3.20;;;20.10;99.90;;;;;;4991998;28;20033;-73
2022/10/18 11:02:28;;;;;;;6.88;3.55;;;20.10;99.90;;;;;;5001687;28;20065;-73
2022/10/18 11:05:21;;;;;;;8.85;3.20;;;20.20;99.90;;;;;;5009194;28;20061;-72
2022/10/18 11:07:50;;;;;;;12.18;2.85;;;20.30;99.90;;;;;;5014203;28;20034;-72
2022/10/18 11:10:23;;;;;;;11.32;3.38;;;20.40;99.90;;;;;;5009886;28;20052;-73
2022/10/18 11:13:17;;;;;;;5.35;2.90;;;20.40;99.90;;;;;;5044678;28;20112;-74
2022/10/18 11:15:59;;;;;;;3.47;2.50;;;20.60;99.90;;;;;;5009554;28;20395;-73
2022/10/18 11:18:31;;;;;;;6.00;2.53;;;20.60;99.90;;;;;;5008515;28;20325;-73
2022/10/18 11:21:07;;;;;;;6.07;2.55;;;20.70;99.90;;;;;;5012220;28;20038;-74
2022/10/18 11:23:42;;;;;;;7.63;2.72;;;20.70;99.90;;;;;;5011374;28;20081;-73
2022/10/18 11:26:40;;;;;;;4.82;2.20;;;20.70;99.90;;;;;;5012336;28;20374;-73
2022/10/18 11:29:15;;;;;;;8.07;2.83;;;20.80;99.90;;;;;;5030266;28;20088;-74
2022/10/18 11:32:03;;;;;;;8.77;2.65;;;20.90;99.90;;;;;;5012568;28;20104;-73
2022/10/18 11:34:56;;;;;;;4.03;2.22;;;20.90;99.90;;;;;;5010229;28;20034;-73
2022/10/18 11:37:44;;;;;;;3.40;2.13;;;21.00;99.90;;;;;;5011861;28;20523;-73
2022/10/18 11:40:36;;;;;;;7.32;2.40;;;21.00;99.90;;;;;;5008349;28;20383;-72
2022/10/18 11:43:42;;;;;;;8.52;3.03;;;21.10;99.90;;;;;;5046380;28;20021;-72
2022/10/18 11:46:14;;;;;;;7.15;2.38;;;21.10;99.90;;;;;;5012494;28;20076;-72
2022/10/18 11:48:43;;;;;;;7.13;2.35;;;21.10;99.90;;;;;;5016396;28;20479;-71
2022/10/18 11:51:53;;;;;;;4.13;2.10;;;21.10;99.90;;;;;;5011308;28;20037;-71
2022/10/18 11:54:43;;;;;;;6.72;2.47;;;21.10;99.90;;;;;;5012189;28;20115;-70
2022/10/18 11:57:40;;;;;;;4.68;2.70;;;21.20;99.90;;;;;;5010349;28;20069;-71
2022/10/18 12:00:24;;;;;;;6.90;2.60;;;21.20;99.90;;;;;;5010498;28;20080;-74
2022/10/18 12:02:58;;;;;;;;;;;21.20;99.90;;;;;;5010510;28;20030;-72
2022/10/18 12:05:24;;;;;;;;;;;21.20;99.90;;;;;;5006711;28;19910;-75
2022/10/18 12:08:01;;;;;;;5.35;2.10;;;21.20;99.90;;;;;;5008612;28;19913;-75
2022/10/18 12:10:31;;;;;;;6.32;2.05;;;21.30;99.90;;;;;;5009929;28;20024;-74
2022/10/18 12:13:01;;;;;;;7.18;2.25;;;21.30;99.90;;;;;;5012092;28;20026;-75
2022/10/18 12:15:30;;;;;;;5.28;1.95;;;21.40;99.90;;;;;;5009269;28;20034;-74
2022/10/18 12:18:04;;;;;;;4.25;1.90;;;21.40;99.90;;;;;;5008512;28;20622;-74
2022/10/18 12:20:45;;;;;;;4.97;1.65;;;21.50;99.90;;;;;;5003555;28;20031;-75
2022/10/18 12:23:33;;;;;;;4.75;2.03;;;21.60;99.90;;;;;;5008486;28;20499;-75
2022/10/18 12:26:02;;;;;;;6.63;2.42;;;21.70;99.90;;;;;;5008291;28;20060;-75
2022/10/18 12:28:34;;;;;;;8.00;2.17;;;21.80;99.90;;;;;;5011570;28;20041;-75
2022/10/18 12:31:17;;;;;;;7.20;2.35;;;21.80;99.90;;;;;;5006789;28;20495;-74
2022/10/18 12:33:54;;;;;;;5.50;1.80;;;21.90;99.90;;;;;;5006117;28;20084;-74
2022/10/18 12:36:38;;;;;;;6.18;1.67;;;21.90;99.90;;;;;;5012560;28;20049;-74
2022/10/18 12:39:11;;;;;;;;;;;21.90;99.90;;;;;;5025267;28;20018;-75
2022/10/18 12:41:37;;;;;;;4.47;1.70;;;21.90;99.90;;;;;;5010816;28;19954;-75
2022/10/18 12:44:17;;;;;;;3.17;1.48;;;21.90;99.90;;;;;;5005661;28;20022;-74
2022/10/18 12:46:53;;;;;;;4.28;1.30;;;21.80;99.90;;;;;;5009721;28;20494;-75
2022/10/18 12:49:38;;;;;;;3.58;1.77;;;21.80;99.90;;;;;;5005109;28;20053;-76
2022/10/18 12:52:06;;;;;;;5.13;1.83;;;21.80;99.90;;;;;;5008643;28;20018;-77
2022/10/18 12:54:38;;;;;;;4.78;2.33;;;21.80;99.90;;;;;;5010771;28;20026;-77
2022/10/18 12:57:22;;;;;;;4.22;1.42;;;21.70;99.90;;;;;;4992867;28;20018;-77
2022/10/18 12:59:53;;;;;;;10.45;2.17;;;21.70;99.90;;;;;;4997174;28;21182;-76
2022/10/18 13:02:27;;;;;;;3.28;1.75;;;21.70;99.90;;;;;;4994723;28;20038;-77
2022/10/18 13:05:43;;;;;;;7.13;1.80;;;21.70;99.90;;;;;;4994259;28;20026;-77
2022/10/18 13:08:29;;;;;;;3.45;1.80;;;21.80;99.90;;;;;;5012500;28;20030;-77
2022/10/18 13:11:00;;;;;;;4.53;2.08;;;21.80;99.90;;;;;;4996154;28;20037;-76
2022/10/18 13:13:49;;;;;;;4.35;1.45;;;21.80;99.90;;;;;;4993156;28;20042;-74